Maquoketa, IA (52060)

5:24 AM CDT on September 15, 2014 (GMT -0500)
Nightowl News ( MAQ Middle School) | Change Station
CLOSE
Current Station
Personal Weather Station
Location: Maquoketa, IA
Elevation: 755 ft
Nearby Weather Stations

Elev 755 ft 42.06 °N, 90.67 °W | Updated 3 minutes ago

Overcast
Overcast
52.4 °F
Feels Like 52.4 °F
N
0.0
Wind Variable Wind from WSW

Today
High -- | Low -- °F
--% Chance of Precip.
Yesterday
High -- | Low -- °F
Precip. -- in
6:42 AM 7:12 PM
Waning Gibbous, 57% visible
Pressure 30.14 in
Visibility 10.0 miles
Clouds Scattered Clouds 5000 ft
Overcast 6500 ft
Dew Point 47 °F
Humidity 83%
Rainfall 0.00 in
Snow Depth Not available.
UV 0 out of 12
Pollen 4.70 out of 12
Air Quality Not available.
Flu Activity Not available.
METAR KDBQ 150953Z AUTO 20003KT 10SM SCT050 OVC065 10/09 A3013 RMK AO2 SLP204 T01000089 $

More Conditions Fewer Conditions

Pressure 30.14 in
Visibility 10.0 miles
Clouds Scattered Clouds 5000 ft
Overcast 6500 ft
Dew Point 47 °F
Humidity 83%
Rainfall 0.00 in
Snow Depth Not available.
UV 0 out of 12
Pollen 4.70 out of 12
Air Quality Not available.
Flu Activity Not available.
METAR KDBQ 150953Z AUTO 20003KT 10SM SCT050 OVC065 10/09 A3013 RMK AO2 SLP204 T01000089 $

More Conditions Fewer Conditions

10-Day Weather Forecast

Almanac

Astronomy

Sep. 15, 2014 Rise Set
Actual Time 6:42 AM CDT 7:12 PM CDT
Civil Twilight 6:14 AM CDT 7:40 PM CDT
Nautical Twilight 5:41 AM CDT 8:13 PM CDT
Astronomical Twilight 5:07 AM CDT 8:47 PM CDT
Moon 11:49 PM CDT 1:49 PM CDT
Length of Visible Light 13h 25m
Length of Day
12h 29m
Tomorrow will be 2m 47s shorter.
Waning Gibbous, 57% of the Moon is Illuminated
Today
Waning Gibbous
Sep 15
Last Quarter
Sep 24
New
Oct 1
First Quarter
Oct 8
Full

Today's Extremes

State Highs State Lows

Community

WunderPhotos

Upload Photos

1,753,428 photos uploaded!

WunderBlogs® & News

Nearby

Snow Depth

Station Depth Elevation
No new snow has been reported.

Earthquake Activity

City Distance Mag. Time & Date
No recent earthquake activity has been reported nearby.
Minimum magnitude displayed is 2.5.

Coastal Water Temperatures

Place Temperature
No Stations Reporting

Nearby Weather Stations